sensor_id;sensor_type;location;lat;lon;timestamp;P1;durP1;ratioP1;P2;durP2;ratioP2
19780;SDS011;10050;55.492;13.506;2024-02-21T00:00:45;29.33;;;8.97;;
19780;SDS011;10050;55.492;13.506;2024-02-21T00:03:10;20.93;;;7.70;;
19780;SDS011;10050;55.492;13.506;2024-02-21T00:05:36;31.10;;;9.03;;
19780;SDS011;10050;55.492;13.506;2024-02-21T00:08:01;29.20;;;8.43;;
19780;SDS011;10050;55.492;13.506;2024-02-21T00:10:28;27.63;;;8.23;;
19780;SDS011;10050;55.492;13.506;2024-02-21T00:12:54;27.07;;;7.93;;
19780;SDS011;10050;55.492;13.506;2024-02-21T00:15:19;19.00;;;7.37;;
19780;SDS011;10050;55.492;13.506;2024-02-21T00:17:46;22.40;;;6.83;;
19780;SDS011;10050;55.492;13.506;2024-02-21T00:20:13;20.17;;;7.00;;
19780;SDS011;10050;55.492;13.506;2024-02-21T00:22:39;27.03;;;6.93;;
19780;SDS011;10050;55.492;13.506;2024-02-21T00:25:05;29.93;;;7.17;;
19780;SDS011;10050;55.492;13.506;2024-02-21T00:27:30;25.67;;;7.60;;
19780;SDS011;10050;55.492;13.506;2024-02-21T00:29:57;23.23;;;7.40;;
19780;SDS011;10050;55.492;13.506;2024-02-21T00:32:22;17.97;;;6.83;;
19780;SDS011;10050;55.492;13.506;2024-02-21T00:34:48;20.37;;;6.90;;
19780;SDS011;10050;55.492;13.506;2024-02-21T00:37:14;24.10;;;7.57;;
19780;SDS011;10050;55.492;13.506;2024-02-21T00:39:39;34.37;;;8.50;;
19780;SDS011;10050;55.492;13.506;2024-02-21T00:42:05;25.40;;;7.77;;
19780;SDS011;10050;55.492;13.506;2024-02-21T00:44:32;28.33;;;8.33;;
19780;SDS011;10050;55.492;13.506;2024-02-21T00:46:58;25.27;;;8.60;;
19780;SDS011;10050;55.492;13.506;2024-02-21T00:49:23;26.73;;;9.60;;
19780;SDS011;10050;55.492;13.506;2024-02-21T00:51:49;23.67;;;8.07;;
19780;SDS011;10050;55.492;13.506;2024-02-21T00:54:14;33.17;;;9.57;;
19780;SDS011;10050;55.492;13.506;2024-02-21T00:56:41;27.73;;;9.07;;
19780;SDS011;10050;55.492;13.506;2024-02-21T00:59:06;35.17;;;10.33;;
19780;SDS011;10050;55.492;13.506;2024-02-21T01:01:32;28.93;;;9.70;;
19780;SDS011;10050;55.492;13.506;2024-02-21T01:03:57;22.00;;;9.30;;
19780;SDS011;10050;55.492;13.506;2024-02-21T01:06:23;32.30;;;10.10;;
19780;SDS011;10050;55.492;13.506;2024-02-21T01:08:49;39.23;;;11.37;;
19780;SDS011;10050;55.492;13.506;2024-02-21T01:11:17;28.10;;;10.23;;
19780;SDS011;10050;55.492;13.506;2024-02-21T01:13:43;34.17;;;10.93;;
19780;SDS011;10050;55.492;13.506;2024-02-21T01:16:09;36.07;;;10.90;;
19780;SDS011;10050;55.492;13.506;2024-02-21T01:18:37;28.73;;;10.90;;
19780;SDS011;10050;55.492;13.506;2024-02-21T01:21:02;24.17;;;10.83;;
19780;SDS011;10050;55.492;13.506;2024-02-21T01:23:31;29.17;;;11.73;;
19780;SDS011;10050;55.492;13.506;2024-02-21T01:26:00;32.77;;;13.37;;
19780;SDS011;10050;55.492;13.506;2024-02-21T01:28:26;33.50;;;12.73;;
19780;SDS011;10050;55.492;13.506;2024-02-21T01:30:52;28.37;;;12.37;;
19780;SDS011;10050;55.492;13.506;2024-02-21T01:33:17;29.20;;;12.63;;
19780;SDS011;10050;55.492;13.506;2024-02-21T01:35:44;32.30;;;14.80;;
19780;SDS011;10050;55.492;13.506;2024-02-21T01:38:09;38.23;;;16.03;;
19780;SDS011;10050;55.492;13.506;2024-02-21T01:40:35;35.50;;;16.67;;
19780;SDS011;10050;55.492;13.506;2024-02-21T01:43:02;37.40;;;15.60;;
19780;SDS011;10050;55.492;13.506;2024-02-21T01:45:28;33.97;;;16.17;;
19780;SDS011;10050;55.492;13.506;2024-02-21T01:47:53;39.33;;;15.80;;
19780;SDS011;10050;55.492;13.506;2024-02-21T01:50:19;38.97;;;16.57;;
19780;SDS011;10050;55.492;13.506;2024-02-21T01:52:47;33.50;;;16.00;;
19780;SDS011;10050;55.492;13.506;2024-02-21T01:55:14;43.00;;;16.87;;
19780;SDS011;10050;55.492;13.506;2024-02-21T01:57:42;30.60;;;15.43;;
19780;SDS011;10050;55.492;13.506;2024-02-21T02:00:11;33.80;;;14.90;;
19780;SDS011;10050;55.492;13.506;2024-02-21T02:02:39;37.50;;;17.40;;
19780;SDS011;10050;55.492;13.506;2024-02-21T02:05:07;39.73;;;17.67;;
19780;SDS011;10050;55.492;13.506;2024-02-21T02:07:33;36.70;;;16.87;;
19780;SDS011;10050;55.492;13.506;2024-02-21T02:09:58;42.53;;;17.87;;
19780;SDS011;10050;55.492;13.506;2024-02-21T02:12:24;39.43;;;16.57;;
19780;SDS011;10050;55.492;13.506;2024-02-21T02:15:00;39.47;;;17.93;;
19780;SDS011;10050;55.492;13.506;2024-02-21T02:17:29;44.77;;;18.80;;
19780;SDS011;10050;55.492;13.506;2024-02-21T02:19:55;46.07;;;20.10;;
19780;SDS011;10050;55.492;13.506;2024-02-21T02:22:22;52.33;;;21.30;;
19780;SDS011;10050;55.492;13.506;2024-02-21T02:24:50;48.90;;;20.77;;
19780;SDS011;10050;55.492;13.506;2024-02-21T02:27:16;36.57;;;18.77;;
19780;SDS011;10050;55.492;13.506;2024-02-21T02:29:42;50.47;;;22.40;;
19780;SDS011;10050;55.492;13.506;2024-02-21T02:32:07;48.13;;;20.27;;
19780;SDS011;10050;55.492;13.506;2024-02-21T02:34:33;46.53;;;19.93;;
19780;SDS011;10050;55.492;13.506;2024-02-21T02:36:59;41.30;;;21.53;;
19780;SDS011;10050;55.492;13.506;2024-02-21T02:39:25;50.83;;;22.63;;
19780;SDS011;10050;55.492;13.506;2024-02-21T02:41:50;46.03;;;22.00;;
19780;SDS011;10050;55.492;13.506;2024-02-21T02:44:16;54.50;;;23.80;;
19780;SDS011;10050;55.492;13.506;2024-02-21T02:46:42;50.10;;;22.93;;
19780;SDS011;10050;55.492;13.506;2024-02-21T02:49:08;63.13;;;24.63;;
19780;SDS011;10050;55.492;13.506;2024-02-21T02:51:34;50.13;;;22.77;;
19780;SDS011;10050;55.492;13.506;2024-02-21T02:53:59;60.90;;;25.37;;
19780;SDS011;10050;55.492;13.506;2024-02-21T02:56:25;55.00;;;24.00;;
19780;SDS011;10050;55.492;13.506;2024-02-21T02:58:50;49.80;;;24.03;;
19780;SDS011;10050;55.492;13.506;2024-02-21T03:01:16;65.13;;;25.80;;
19780;SDS011;10050;55.492;13.506;2024-02-21T03:03:42;56.10;;;25.17;;
19780;SDS011;10050;55.492;13.506;2024-02-21T03:06:07;51.17;;;24.07;;
19780;SDS011;10050;55.492;13.506;2024-02-21T03:08:33;47.27;;;24.77;;
19780;SDS011;10050;55.492;13.506;2024-02-21T03:10:59;56.87;;;25.20;;
19780;SDS011;10050;55.492;13.506;2024-02-21T03:13:25;58.30;;;25.40;;
19780;SDS011;10050;55.492;13.506;2024-02-21T03:15:51;44.37;;;23.90;;
19780;SDS011;10050;55.492;13.506;2024-02-21T03:18:16;58.53;;;26.17;;
19780;SDS011;10050;55.492;13.506;2024-02-21T03:20:42;61.47;;;26.10;;
19780;SDS011;10050;55.492;13.506;2024-02-21T03:23:07;61.97;;;25.63;;
19780;SDS011;10050;55.492;13.506;2024-02-21T03:25:33;53.20;;;27.00;;
19780;SDS011;10050;55.492;13.506;2024-02-21T03:27:59;51.60;;;25.40;;
19780;SDS011;10050;55.492;13.506;2024-02-21T03:30:24;45.97;;;25.10;;
19780;SDS011;10050;55.492;13.506;2024-02-21T03:32:50;53.73;;;25.20;;
19780;SDS011;10050;55.492;13.506;2024-02-21T03:35:16;58.80;;;26.47;;
19780;SDS011;10050;55.492;13.506;2024-02-21T03:37:41;47.20;;;24.43;;
19780;SDS011;10050;55.492;13.506;2024-02-21T03:40:09;52.57;;;24.37;;
19780;SDS011;10050;55.492;13.506;2024-02-21T03:42:35;47.97;;;24.97;;
19780;SDS011;10050;55.492;13.506;2024-02-21T03:45:02;45.73;;;25.20;;
19780;SDS011;10050;55.492;13.506;2024-02-21T03:47:28;50.40;;;23.80;;
19780;SDS011;10050;55.492;13.506;2024-02-21T03:49:54;46.73;;;22.57;;
19780;SDS011;10050;55.492;13.506;2024-02-21T03:52:19;47.13;;;21.87;;
19780;SDS011;10050;55.492;13.506;2024-02-21T03:54:45;44.07;;;21.83;;
19780;SDS011;10050;55.492;13.506;2024-02-21T03:57:11;50.20;;;24.40;;
19780;SDS011;10050;55.492;13.506;2024-02-21T03:59:36;50.50;;;22.60;;
19780;SDS011;10050;55.492;13.506;2024-02-21T04:02:05;54.40;;;24.33;;
19780;SDS011;10050;55.492;13.506;2024-02-21T04:04:33;45.30;;;23.20;;
19780;SDS011;10050;55.492;13.506;2024-02-21T04:07:05;55.73;;;23.90;;
19780;SDS011;10050;55.492;13.506;2024-02-21T04:09:32;53.27;;;23.23;;
19780;SDS011;10050;55.492;13.506;2024-02-21T04:11:58;51.43;;;24.23;;
19780;SDS011;10050;55.492;13.506;2024-02-21T04:14:24;43.57;;;22.90;;
19780;SDS011;10050;55.492;13.506;2024-02-21T04:16:50;43.47;;;23.13;;
19780;SDS011;10050;55.492;13.506;2024-02-21T04:19:15;44.27;;;21.73;;
19780;SDS011;10050;55.492;13.506;2024-02-21T04:21:41;52.53;;;23.20;;
19780;SDS011;10050;55.492;13.506;2024-02-21T04:24:07;42.77;;;23.50;;
19780;SDS011;10050;55.492;13.506;2024-02-21T04:26:33;45.40;;;24.77;;
19780;SDS011;10050;55.492;13.506;2024-02-21T04:28:59;45.23;;;24.93;;
19780;SDS011;10050;55.492;13.506;2024-02-21T04:31:24;47.47;;;23.73;;
19780;SDS011;10050;55.492;13.506;2024-02-21T04:33:50;45.60;;;22.67;;
19780;SDS011;10050;55.492;13.506;2024-02-21T04:36:16;40.43;;;21.33;;
19780;SDS011;10050;55.492;13.506;2024-02-21T04:38:42;38.23;;;20.77;;
19780;SDS011;10050;55.492;13.506;2024-02-21T04:41:08;36.13;;;20.07;;
19780;SDS011;10050;55.492;13.506;2024-02-21T04:43:33;37.27;;;20.37;;
19780;SDS011;10050;55.492;13.506;2024-02-21T04:45:59;35.60;;;20.87;;
19780;SDS011;10050;55.492;13.506;2024-02-21T04:48:25;39.37;;;20.90;;
19780;SDS011;10050;55.492;13.506;2024-02-21T04:50:51;41.13;;;21.33;;
19780;SDS011;10050;55.492;13.506;2024-02-21T04:53:16;38.20;;;21.73;;
19780;SDS011;10050;55.492;13.506;2024-02-21T04:55:42;39.60;;;21.03;;
19780;SDS011;10050;55.492;13.506;2024-02-21T04:58:08;44.40;;;19.93;;
19780;SDS011;10050;55.492;13.506;2024-02-21T05:00:33;39.03;;;20.97;;
19780;SDS011;10050;55.492;13.506;2024-02-21T05:02:59;38.07;;;20.27;;
19780;SDS011;10050;55.492;13.506;2024-02-21T05:05:25;34.73;;;19.63;;
19780;SDS011;10050;55.492;13.506;2024-02-21T05:07:50;36.47;;;19.77;;
19780;SDS011;10050;55.492;13.506;2024-02-21T05:10:16;31.13;;;18.93;;
19780;SDS011;10050;55.492;13.506;2024-02-21T05:12:43;28.57;;;16.80;;
19780;SDS011;10050;55.492;13.506;2024-02-21T05:15:08;28.10;;;16.17;;
19780;SDS011;10050;55.492;13.506;2024-02-21T05:17:35;25.87;;;15.67;;
19780;SDS011;10050;55.492;13.506;2024-02-21T05:20:01;25.73;;;14.67;;
19780;SDS011;10050;55.492;13.506;2024-02-21T05:22:26;24.90;;;14.33;;
19780;SDS011;10050;55.492;13.506;2024-02-21T05:24:52;22.50;;;14.57;;
19780;SDS011;10050;55.492;13.506;2024-02-21T05:27:18;23.07;;;14.13;;
19780;SDS011;10050;55.492;13.506;2024-02-21T05:29:43;23.50;;;13.93;;
19780;SDS011;10050;55.492;13.506;2024-02-21T05:32:09;22.53;;;13.60;;
19780;SDS011;10050;55.492;13.506;2024-02-21T05:34:35;25.80;;;15.17;;
19780;SDS011;10050;55.492;13.506;2024-02-21T05:37:00;22.97;;;14.17;;
19780;SDS011;10050;55.492;13.506;2024-02-21T05:39:26;24.03;;;15.10;;
19780;SDS011;10050;55.492;13.506;2024-02-21T05:41:53;24.53;;;14.40;;
19780;SDS011;10050;55.492;13.506;2024-02-21T05:44:19;25.33;;;14.03;;
19780;SDS011;10050;55.492;13.506;2024-02-21T05:46:48;24.33;;;14.30;;
19780;SDS011;10050;55.492;13.506;2024-02-21T05:49:13;26.27;;;14.93;;
19780;SDS011;10050;55.492;13.506;2024-02-21T05:51:39;26.87;;;15.83;;
19780;SDS011;10050;55.492;13.506;2024-02-21T05:54:05;28.77;;;15.87;;
19780;SDS011;10050;55.492;13.506;2024-02-21T05:56:31;29.27;;;15.83;;
19780;SDS011;10050;55.492;13.506;2024-02-21T05:58:57;25.33;;;15.67;;
19780;SDS011;10050;55.492;13.506;2024-02-21T06:01:22;25.23;;;14.93;;
19780;SDS011;10050;55.492;13.506;2024-02-21T06:03:48;27.77;;;15.20;;
19780;SDS011;10050;55.492;13.506;2024-02-21T06:06:13;24.57;;;14.97;;
19780;SDS011;10050;55.492;13.506;2024-02-21T06:08:39;19.13;;;13.20;;
19780;SDS011;10050;55.492;13.506;2024-02-21T06:11:05;21.37;;;12.90;;
19780;SDS011;10050;55.492;13.506;2024-02-21T06:13:31;16.73;;;10.97;;
19780;SDS011;10050;55.492;13.506;2024-02-21T06:15:57;16.90;;;10.10;;
19780;SDS011;10050;55.492;13.506;2024-02-21T06:18:22;13.60;;;8.30;;
19780;SDS011;10050;55.492;13.506;2024-02-21T06:20:48;14.53;;;7.67;;
19780;SDS011;10050;55.492;13.506;2024-02-21T06:23:14;10.83;;;7.33;;
19780;SDS011;10050;55.492;13.506;2024-02-21T06:25:41;8.13;;;6.40;;
19780;SDS011;10050;55.492;13.506;2024-02-21T06:28:07;9.07;;;6.17;;
19780;SDS011;10050;55.492;13.506;2024-02-21T06:30:33;10.23;;;5.90;;
19780;SDS011;10050;55.492;13.506;2024-02-21T06:32:58;8.73;;;5.40;;
19780;SDS011;10050;55.492;13.506;2024-02-21T06:35:24;9.83;;;4.73;;
19780;SDS011;10050;55.492;13.506;2024-02-21T06:37:51;7.10;;;4.57;;
19780;SDS011;10050;55.492;13.506;2024-02-21T06:40:23;6.97;;;4.03;;
19780;SDS011;10050;55.492;13.506;2024-02-21T06:42:49;4.43;;;3.67;;
19780;SDS011;10050;55.492;13.506;2024-02-21T06:45:15;5.87;;;3.77;;
19780;SDS011;10050;55.492;13.506;2024-02-21T06:47:41;4.07;;;2.87;;
19780;SDS011;10050;55.492;13.506;2024-02-21T06:50:07;4.60;;;3.20;;
19780;SDS011;10050;55.492;13.506;2024-02-21T06:52:33;5.40;;;3.63;;
19780;SDS011;10050;55.492;13.506;2024-02-21T06:54:59;4.93;;;3.07;;
19780;SDS011;10050;55.492;13.506;2024-02-21T06:57:25;6.23;;;2.93;;
19780;SDS011;10050;55.492;13.506;2024-02-21T06:59:50;2.97;;;2.63;;
19780;SDS011;10050;55.492;13.506;2024-02-21T07:02:16;4.17;;;2.80;;
19780;SDS011;10050;55.492;13.506;2024-02-21T07:04:41;5.63;;;2.90;;
19780;SDS011;10050;55.492;13.506;2024-02-21T07:07:08;4.33;;;2.70;;
19780;SDS011;10050;55.492;13.506;2024-02-21T07:09:34;5.57;;;3.17;;
19780;SDS011;10050;55.492;13.506;2024-02-21T07:11:59;5.27;;;2.80;;
19780;SDS011;10050;55.492;13.506;2024-02-21T07:14:28;5.47;;;2.83;;
19780;SDS011;10050;55.492;13.506;2024-02-21T07:16:53;8.40;;;2.37;;
19780;SDS011;10050;55.492;13.506;2024-02-21T07:19:19;3.13;;;2.80;;
19780;SDS011;10050;55.492;13.506;2024-02-21T07:21:45;5.90;;;3.00;;
19780;SDS011;10050;55.492;13.506;2024-02-21T07:24:11;6.27;;;2.63;;
19780;SDS011;10050;55.492;13.506;2024-02-21T07:26:37;8.03;;;2.97;;
19780;SDS011;10050;55.492;13.506;2024-02-21T07:29:05;6.30;;;2.60;;
19780;SDS011;10050;55.492;13.506;2024-02-21T07:31:31;9.03;;;2.60;;
19780;SDS011;10050;55.492;13.506;2024-02-21T07:34:03;6.17;;;2.90;;
19780;SDS011;10050;55.492;13.506;2024-02-21T07:36:29;4.23;;;2.53;;
19780;SDS011;10050;55.492;13.506;2024-02-21T07:38:55;5.60;;;2.87;;
19780;SDS011;10050;55.492;13.506;2024-02-21T07:41:21;3.63;;;2.20;;
19780;SDS011;10050;55.492;13.506;2024-02-21T07:43:46;6.10;;;3.00;;
19780;SDS011;10050;55.492;13.506;2024-02-21T07:46:13;10.23;;;3.23;;
19780;SDS011;10050;55.492;13.506;2024-02-21T07:48:39;6.73;;;2.10;;
19780;SDS011;10050;55.492;13.506;2024-02-21T07:51:05;4.83;;;1.97;;
19780;SDS011;10050;55.492;13.506;2024-02-21T07:53:30;7.37;;;2.57;;
19780;SDS011;10050;55.492;13.506;2024-02-21T07:55:56;5.27;;;1.67;;
19780;SDS011;10050;55.492;13.506;2024-02-21T07:58:21;7.67;;;1.87;;
19780;SDS011;10050;55.492;13.506;2024-02-21T08:00:47;6.50;;;1.83;;
19780;SDS011;10050;55.492;13.506;2024-02-21T08:03:13;7.70;;;2.33;;
19780;SDS011;10050;55.492;13.506;2024-02-21T08:05:40;9.33;;;2.47;;
19780;SDS011;10050;55.492;13.506;2024-02-21T08:08:06;13.07;;;3.47;;
19780;SDS011;10050;55.492;13.506;2024-02-21T08:10:33;6.80;;;2.17;;
19780;SDS011;10050;55.492;13.506;2024-02-21T08:12:58;5.90;;;2.23;;
19780;SDS011;10050;55.492;13.506;2024-02-21T08:15:24;8.27;;;2.50;;
19780;SDS011;10050;55.492;13.506;2024-02-21T08:17:54;7.83;;;2.27;;
19780;SDS011;10050;55.492;13.506;2024-02-21T08:20:24;9.20;;;2.00;;
19780;SDS011;10050;55.492;13.506;2024-02-21T08:22:49;11.13;;;2.40;;
19780;SDS011;10050;55.492;13.506;2024-02-21T08:25:15;11.00;;;2.93;;
19780;SDS011;10050;55.492;13.506;2024-02-21T08:27:40;15.87;;;3.43;;
19780;SDS011;10050;55.492;13.506;2024-02-21T08:30:06;12.67;;;2.80;;
19780;SDS011;10050;55.492;13.506;2024-02-21T08:32:33;14.13;;;3.40;;
19780;SDS011;10050;55.492;13.506;2024-02-21T08:35:00;12.03;;;2.63;;
19780;SDS011;10050;55.492;13.506;2024-02-21T08:37:27;13.67;;;2.77;;
19780;SDS011;10050;55.492;13.506;2024-02-21T08:39:52;12.30;;;3.13;;
19780;SDS011;10050;55.492;13.506;2024-02-21T08:42:18;12.77;;;3.37;;
19780;SDS011;10050;55.492;13.506;2024-02-21T08:44:44;10.73;;;2.77;;
19780;SDS011;10050;55.492;13.506;2024-02-21T08:47:10;17.90;;;3.70;;
19780;SDS011;10050;55.492;13.506;2024-02-21T08:49:36;9.60;;;3.50;;
19780;SDS011;10050;55.492;13.506;2024-02-21T08:52:02;12.70;;;2.80;;
19780;SDS011;10050;55.492;13.506;2024-02-21T08:54:28;12.93;;;3.13;;
19780;SDS011;10050;55.492;13.506;2024-02-21T08:56:54;15.63;;;3.30;;
19780;SDS011;10050;55.492;13.506;2024-02-21T08:59:20;10.03;;;2.90;;
19780;SDS011;10050;55.492;13.506;2024-02-21T09:01:45;16.30;;;3.83;;
19780;SDS011;10050;55.492;13.506;2024-02-21T09:04:11;14.10;;;2.87;;
19780;SDS011;10050;55.492;13.506;2024-02-21T09:06:37;21.23;;;4.03;;
19780;SDS011;10050;55.492;13.506;2024-02-21T09:09:06;13.50;;;3.37;;
19780;SDS011;10050;55.492;13.506;2024-02-21T09:11:33;14.77;;;3.40;;
19780;SDS011;10050;55.492;13.506;2024-02-21T09:13:59;16.33;;;3.10;;
19780;SDS011;10050;55.492;13.506;2024-02-21T09:16:25;11.67;;;2.90;;
19780;SDS011;10050;55.492;13.506;2024-02-21T09:18:50;12.93;;;3.13;;
19780;SDS011;10050;55.492;13.506;2024-02-21T09:21:17;8.83;;;3.00;;
19780;SDS011;10050;55.492;13.506;2024-02-21T09:23:43;11.90;;;3.17;;
19780;SDS011;10050;55.492;13.506;2024-02-21T09:26:10;14.87;;;3.00;;
19780;SDS011;10050;55.492;13.506;2024-02-21T09:28:41;11.17;;;3.07;;
19780;SDS011;10050;55.492;13.506;2024-02-21T09:31:07;12.93;;;3.37;;
19780;SDS011;10050;55.492;13.506;2024-02-21T09:33:32;12.23;;;2.93;;
19780;SDS011;10050;55.492;13.506;2024-02-21T09:35:58;13.40;;;3.37;;
19780;SDS011;10050;55.492;13.506;2024-02-21T09:38:24;19.47;;;3.33;;
19780;SDS011;10050;55.492;13.506;2024-02-21T09:40:58;9.90;;;2.87;;
19780;SDS011;10050;55.492;13.506;2024-02-21T09:43:28;14.63;;;3.50;;
19780;SDS011;10050;55.492;13.506;2024-02-21T09:45:54;13.13;;;3.40;;
19780;SDS011;10050;55.492;13.506;2024-02-21T09:48:35;11.03;;;3.47;;
19780;SDS011;10050;55.492;13.506;2024-02-21T09:51:11;18.47;;;3.20;;
19780;SDS011;10050;55.492;13.506;2024-02-21T09:53:38;14.77;;;3.70;;
19780;SDS011;10050;55.492;13.506;2024-02-21T09:56:10;13.63;;;3.10;;
19780;SDS011;10050;55.492;13.506;2024-02-21T09:58:36;12.70;;;3.40;;
19780;SDS011;10050;55.492;13.506;2024-02-21T10:01:02;12.73;;;2.87;;
19780;SDS011;10050;55.492;13.506;2024-02-21T10:03:31;15.77;;;3.47;;
19780;SDS011;10050;55.492;13.506;2024-02-21T10:05:58;13.07;;;2.57;;
19780;SDS011;10050;55.492;13.506;2024-02-21T10:08:26;10.47;;;2.80;;
19780;SDS011;10050;55.492;13.506;2024-02-21T10:10:52;20.60;;;3.17;;
19780;SDS011;10050;55.492;13.506;2024-02-21T10:13:27;11.87;;;3.10;;
19780;SDS011;10050;55.492;13.506;2024-02-21T10:16:01;10.23;;;2.40;;
19780;SDS011;10050;55.492;13.506;2024-02-21T10:18:27;15.53;;;3.40;;
19780;SDS011;10050;55.492;13.506;2024-02-21T10:20:59;13.97;;;3.27;;
19780;SDS011;10050;55.492;13.506;2024-02-21T10:23:29;10.70;;;2.80;;
19780;SDS011;10050;55.492;13.506;2024-02-21T10:26:04;12.73;;;3.57;;
19780;SDS011;10050;55.492;13.506;2024-02-21T10:28:30;13.30;;;2.53;;
19780;SDS011;10050;55.492;13.506;2024-02-21T10:30:56;17.17;;;3.67;;
19780;SDS011;10050;55.492;13.506;2024-02-21T10:33:22;8.53;;;2.57;;
19780;SDS011;10050;55.492;13.506;2024-02-21T10:35:49;14.50;;;2.93;;
19780;SDS011;10050;55.492;13.506;2024-02-21T10:38:15;10.37;;;2.37;;
19780;SDS011;10050;55.492;13.506;2024-02-21T10:40:40;10.87;;;2.77;;
19780;SDS011;10050;55.492;13.506;2024-02-21T10:45:52;6.73;;;2.20;;
19780;SDS011;10050;55.492;13.506;2024-02-21T10:48:21;9.57;;;2.83;;
19780;SDS011;10050;55.492;13.506;2024-02-21T10:58:51;10.83;;;2.40;;
19780;SDS011;10050;55.492;13.506;2024-02-21T11:01:18;13.20;;;2.93;;
19780;SDS011;10050;55.492;13.506;2024-02-21T11:03:44;13.43;;;2.70;;
19780;SDS011;10050;55.492;13.506;2024-02-21T11:06:12;9.33;;;2.33;;
19780;SDS011;10050;55.492;13.506;2024-02-21T11:08:40;16.10;;;2.90;;
19780;SDS011;10050;55.492;13.506;2024-02-21T11:11:05;14.53;;;3.07;;
19780;SDS011;10050;55.492;13.506;2024-02-21T11:13:34;10.17;;;2.83;;
19780;SDS011;10050;55.492;13.506;2024-02-21T11:16:07;10.77;;;2.57;;
19780;SDS011;10050;55.492;13.506;2024-02-21T11:18:37;6.53;;;2.00;;
19780;SDS011;10050;55.492;13.506;2024-02-21T11:21:03;11.70;;;2.43;;
19780;SDS011;10050;55.492;13.506;2024-02-21T11:23:32;11.60;;;2.80;;
19780;SDS011;10050;55.492;13.506;2024-02-21T11:26:06;12.97;;;3.07;;
19780;SDS011;10050;55.492;13.506;2024-02-21T11:28:32;12.23;;;2.57;;
19780;SDS011;10050;55.492;13.506;2024-02-21T11:31:12;7.67;;;2.67;;
19780;SDS011;10050;55.492;13.506;2024-02-21T11:33:48;8.30;;;2.80;;
19780;SDS011;10050;55.492;13.506;2024-02-21T11:36:26;15.70;;;2.93;;
19780;SDS011;10050;55.492;13.506;2024-02-21T11:38:52;14.20;;;1.93;;
19780;SDS011;10050;55.492;13.506;2024-02-21T11:41:18;7.40;;;2.03;;
19780;SDS011;10050;55.492;13.506;2024-02-21T11:43:46;7.90;;;2.10;;
19780;SDS011;10050;55.492;13.506;2024-02-21T11:46:13;11.57;;;3.00;;
19780;SDS011;10050;55.492;13.506;2024-02-21T11:48:40;11.43;;;2.40;;
19780;SDS011;10050;55.492;13.506;2024-02-21T11:51:06;9.10;;;2.13;;
19780;SDS011;10050;55.492;13.506;2024-02-21T11:53:32;11.07;;;2.47;;
19780;SDS011;10050;55.492;13.506;2024-02-21T11:55:58;10.70;;;2.37;;
19780;SDS011;10050;55.492;13.506;2024-02-21T11:58:24;13.87;;;2.97;;
19780;SDS011;10050;55.492;13.506;2024-02-21T12:00:51;14.27;;;3.07;;
19780;SDS011;10050;55.492;13.506;2024-02-21T12:03:17;6.97;;;2.33;;
19780;SDS011;10050;55.492;13.506;2024-02-21T12:05:43;8.70;;;2.13;;
19780;SDS011;10050;55.492;13.506;2024-02-21T12:08:09;7.87;;;2.20;;
19780;SDS011;10050;55.492;13.506;2024-02-21T12:10:35;12.83;;;2.77;;
19780;SDS011;10050;55.492;13.506;2024-02-21T12:13:10;12.67;;;3.20;;
19780;SDS011;10050;55.492;13.506;2024-02-21T12:15:38;12.70;;;2.50;;
19780;SDS011;10050;55.492;13.506;2024-02-21T12:18:04;8.60;;;2.63;;
19780;SDS011;10050;55.492;13.506;2024-02-21T12:20:30;11.30;;;3.50;;
19780;SDS011;10050;55.492;13.506;2024-02-21T12:22:59;11.73;;;2.97;;
19780;SDS011;10050;55.492;13.506;2024-02-21T12:25:25;7.67;;;2.00;;
19780;SDS011;10050;55.492;13.506;2024-02-21T12:27:52;10.37;;;2.20;;
19780;SDS011;10050;55.492;13.506;2024-02-21T12:30:18;13.97;;;3.63;;
19780;SDS011;10050;55.492;13.506;2024-02-21T12:32:44;11.17;;;2.90;;
19780;SDS011;10050;55.492;13.506;2024-02-21T12:35:10;13.17;;;2.70;;
19780;SDS011;10050;55.492;13.506;2024-02-21T12:37:36;12.30;;;2.70;;
19780;SDS011;10050;55.492;13.506;2024-02-21T12:40:03;8.30;;;2.63;;
19780;SDS011;10050;55.492;13.506;2024-02-21T12:42:33;11.30;;;2.33;;
19780;SDS011;10050;55.492;13.506;2024-02-21T12:45:00;11.53;;;2.50;;
19780;SDS011;10050;55.492;13.506;2024-02-21T12:47:28;11.03;;;2.13;;
19780;SDS011;10050;55.492;13.506;2024-02-21T12:49:53;9.30;;;2.57;;
19780;SDS011;10050;55.492;13.506;2024-02-21T12:52:19;11.00;;;2.43;;
19780;SDS011;10050;55.492;13.506;2024-02-21T12:54:45;11.63;;;2.23;;
19780;SDS011;10050;55.492;13.506;2024-02-21T12:57:10;11.73;;;2.67;;
19780;SDS011;10050;55.492;13.506;2024-02-21T12:59:36;7.10;;;2.70;;
19780;SDS011;10050;55.492;13.506;2024-02-21T13:02:01;7.40;;;2.47;;
19780;SDS011;10050;55.492;13.506;2024-02-21T13:04:27;8.67;;;2.33;;
19780;SDS011;10050;55.492;13.506;2024-02-21T13:06:53;9.77;;;2.13;;
19780;SDS011;10050;55.492;13.506;2024-02-21T13:09:20;8.63;;;2.53;;
19780;SDS011;10050;55.492;13.506;2024-02-21T13:11:46;6.97;;;2.17;;
19780;SDS011;10050;55.492;13.506;2024-02-21T13:14:12;11.07;;;2.80;;
19780;SDS011;10050;55.492;13.506;2024-02-21T13:16:37;8.37;;;2.63;;
19780;SDS011;10050;55.492;13.506;2024-02-21T13:19:06;8.40;;;2.27;;
19780;SDS011;10050;55.492;13.506;2024-02-21T13:21:35;8.63;;;2.50;;
19780;SDS011;10050;55.492;13.506;2024-02-21T13:24:01;14.97;;;2.80;;
19780;SDS011;10050;55.492;13.506;2024-02-21T13:26:27;14.13;;;3.20;;
19780;SDS011;10050;55.492;13.506;2024-02-21T13:28:53;10.00;;;2.93;;
19780;SDS011;10050;55.492;13.506;2024-02-21T13:31:18;11.87;;;3.13;;
19780;SDS011;10050;55.492;13.506;2024-02-21T13:33:45;9.57;;;2.63;;
19780;SDS011;10050;55.492;13.506;2024-02-21T13:36:10;10.77;;;2.57;;
19780;SDS011;10050;55.492;13.506;2024-02-21T13:38:36;8.07;;;2.07;;
19780;SDS011;10050;55.492;13.506;2024-02-21T13:41:04;6.60;;;2.00;;
19780;SDS011;10050;55.492;13.506;2024-02-21T13:43:30;7.13;;;2.10;;
19780;SDS011;10050;55.492;13.506;2024-02-21T13:45:56;7.70;;;2.00;;
19780;SDS011;10050;55.492;13.506;2024-02-21T13:48:24;11.40;;;2.60;;
19780;SDS011;10050;55.492;13.506;2024-02-21T13:50:50;12.07;;;2.70;;
19780;SDS011;10050;55.492;13.506;2024-02-21T13:53:15;12.10;;;2.40;;
19780;SDS011;10050;55.492;13.506;2024-02-21T13:55:43;7.97;;;2.00;;
19780;SDS011;10050;55.492;13.506;2024-02-21T13:58:12;6.03;;;2.37;;
19780;SDS011;10050;55.492;13.506;2024-02-21T14:00:38;10.07;;;2.83;;
19780;SDS011;10050;55.492;13.506;2024-02-21T14:03:03;4.10;;;1.83;;
19780;SDS011;10050;55.492;13.506;2024-02-21T14:05:29;11.47;;;2.27;;
19780;SDS011;10050;55.492;13.506;2024-02-21T14:07:55;10.47;;;2.33;;
19780;SDS011;10050;55.492;13.506;2024-02-21T14:10:21;5.60;;;2.37;;
19780;SDS011;10050;55.492;13.506;2024-02-21T14:12:47;9.33;;;2.20;;
19780;SDS011;10050;55.492;13.506;2024-02-21T14:15:13;6.27;;;2.07;;
19780;SDS011;10050;55.492;13.506;2024-02-21T14:17:39;8.73;;;2.63;;
19780;SDS011;10050;55.492;13.506;2024-02-21T14:20:05;6.87;;;2.27;;
19780;SDS011;10050;55.492;13.506;2024-02-21T14:22:32;11.40;;;2.40;;
19780;SDS011;10050;55.492;13.506;2024-02-21T14:24:59;8.43;;;2.57;;
19780;SDS011;10050;55.492;13.506;2024-02-21T14:27:25;10.10;;;2.30;;